Terminal Aerodrome Forecast
Issued by NWS Shreveport, LA

Home | Current Version | Previous Version | Text Only | Print | Product List | Glossary On
Versions: 1 2 3 4 5 6 7 8 9 10 11 12 13 14 15
301
FTUS44 KSHV 261759
TAFTYR
TAF
KTYR 261759Z 2618/2718 01008KT P6SM VCSH OVC015
     FM262200 01008KT P6SM BKN025
     FM270100 01005KT P6SM OVC035
     FM271400 02006KT P6SM BKN050 BKN100=

USA.gov is the U.S. government's official web portal to all federal, state and local government web resources and services.